Cantil, CA (93519)

9:27 AM PDT on August 30, 2015 (GMT -0700)
FAR site | | Change Station
CLOSE
Current Station
Personal Weather Station
Location: Cantil, CA
Elevation: 2000 ft
Nearby Weather Stations

Elev 2000 ft 35.35 °N, 117.81 °W | Updated 7 minutes ago

Partly Cloudy
Partly Cloudy
80.3 °F
Feels Like 80 °F
N
16.0
Wind Variable Wind from SW
Gusts 17.0 mph

Today
High -- | Low -- °F
--% Chance of Precip.
Yesterday
High -- | Low -- °F
Precip. -- in
6:22 AM 7:21 PM
Full, 99% visible
Pressure 29.98 in
Visibility 10.0 miles
Clouds Clear
Heat Index 80 °F
Dew Point 56 °F
Humidity 44%
Rainfall 0.00 in
Snow Depth Not available.
UV 3 out of 12
Pollen 8.30 out of 12
Air Quality Not available.
Flu Activity Not available.
METAR KMHV 301600Z AUTO 28010KT 10SM CLR 27/13 A2998 RMK A01
Pressure 29.98 in
Visibility 10.0 miles
Clouds Clear
Heat Index 80 °F
Dew Point 56 °F
Humidity 44%
Rainfall 0.00 in
Snow Depth Not available.
UV 3 out of 12
Pollen 8.30 out of 12
Air Quality Not available.
Flu Activity Not available.
METAR KMHV 301600Z AUTO 28010KT 10SM CLR 27/13 A2998 RMK A01

10-Day Weather Forecast

×

Almanac

Astronomy

Aug. 30, 2015 Rise Set
Actual Time
Civil Twilight
Nautical Twilight
Astronomical Twilight
Moon
Length of Visible Light
Length of Day
Tomorrow will be .
, % of the Moon is Illuminated

Today's Extremes

State Highs State Lows

Community

WunderPhotos

Upload Photos

1,851,005 photos uploaded!

WunderBlogs® & News

Nearby

Air Quality

  Air Quality AQ Index Pollutant
Not available.

Snow Depth

Station Depth Elevation

Earthquake Activity

City Distance Mag. Time & Date
Minimum magnitude displayed is 2.5.

Coastal Water Temperatures

Place Temperature

Stations

Nearby Weather Stations

Station Location Temp. Windchill Dew Point Humidity Wind Precip. Elev Updated Type